Terminal Aerodrome Forecast
Issued by NWS

Home | Current Version | Previous Version | Text Only | Print | Product List | Glossary On
Versions: 1 2 3 4 5 6 7 8 9 10 11 12 13 14
561
FTAK31 PAJN 190540
TAFAGY
TAF
PAGY 190540Z 1906/2006 21010KT P6SM -RA SCT030 OVC040
      TEMPO 1906/1910 20012G20KT
     FM191200 21008G18KT 6SM -RA BR OVC025 WS020/16040KT
     FM192100 21020G30KT P6SM -RA BKN030 OVC040
      AMD LTD TO CLD VIS AND WIND=

USA.gov is the U.S. government's official web portal to all federal, state and local government web resources and services.